sensor_id;sensor_type;location;lat;lon;timestamp;P1;durP1;ratioP1;P2;durP2;ratioP2
10134;SDS011;5107;48.850;8.924;2024-03-06T00:00:07;3.20;;;2.20;;
10134;SDS011;5107;48.850;8.924;2024-03-06T00:02:33;4.30;;;2.00;;
10134;SDS011;5107;48.850;8.924;2024-03-06T00:05:00;2.90;;;2.23;;
10134;SDS011;5107;48.850;8.924;2024-03-06T00:07:25;2.53;;;1.70;;
10134;SDS011;5107;48.850;8.924;2024-03-06T00:09:51;4.57;;;1.83;;
10134;SDS011;5107;48.850;8.924;2024-03-06T00:12:16;2.90;;;2.17;;
10134;SDS011;5107;48.850;8.924;2024-03-06T00:14:43;2.70;;;1.80;;
10134;SDS011;5107;48.850;8.924;2024-03-06T00:17:08;3.03;;;1.90;;
10134;SDS011;5107;48.850;8.924;2024-03-06T00:19:34;2.37;;;1.90;;
10134;SDS011;5107;48.850;8.924;2024-03-06T00:22:00;3.10;;;2.10;;
10134;SDS011;5107;48.850;8.924;2024-03-06T00:24:26;3.17;;;2.00;;
10134;SDS011;5107;48.850;8.924;2024-03-06T00:26:51;2.03;;;1.83;;
10134;SDS011;5107;48.850;8.924;2024-03-06T00:29:17;2.63;;;2.37;;
10134;SDS011;5107;48.850;8.924;2024-03-06T00:31:43;3.83;;;2.23;;
10134;SDS011;5107;48.850;8.924;2024-03-06T00:34:10;2.93;;;2.20;;
10134;SDS011;5107;48.850;8.924;2024-03-06T00:36:36;2.53;;;2.20;;
10134;SDS011;5107;48.850;8.924;2024-03-06T00:39:02;2.57;;;2.13;;
10134;SDS011;5107;48.850;8.924;2024-03-06T00:41:29;3.70;;;2.30;;
10134;SDS011;5107;48.850;8.924;2024-03-06T00:43:55;5.67;;;2.30;;
10134;SDS011;5107;48.850;8.924;2024-03-06T00:46:20;3.57;;;2.37;;
10134;SDS011;5107;48.850;8.924;2024-03-06T00:48:45;2.77;;;2.53;;
10134;SDS011;5107;48.850;8.924;2024-03-06T00:51:11;2.80;;;2.47;;
10134;SDS011;5107;48.850;8.924;2024-03-06T00:53:36;4.13;;;2.17;;
10134;SDS011;5107;48.850;8.924;2024-03-06T00:56:02;2.97;;;2.03;;
10134;SDS011;5107;48.850;8.924;2024-03-06T00:58:27;3.00;;;2.33;;
10134;SDS011;5107;48.850;8.924;2024-03-06T01:00:53;5.30;;;2.30;;
10134;SDS011;5107;48.850;8.924;2024-03-06T01:03:18;4.03;;;2.37;;
10134;SDS011;5107;48.850;8.924;2024-03-06T01:05:44;2.87;;;2.00;;
10134;SDS011;5107;48.850;8.924;2024-03-06T01:08:10;3.23;;;2.00;;
10134;SDS011;5107;48.850;8.924;2024-03-06T01:10:35;3.30;;;2.20;;
10134;SDS011;5107;48.850;8.924;2024-03-06T01:13:00;2.67;;;2.00;;
10134;SDS011;5107;48.850;8.924;2024-03-06T01:15:26;3.40;;;2.37;;
10134;SDS011;5107;48.850;8.924;2024-03-06T01:17:51;2.57;;;2.00;;
10134;SDS011;5107;48.850;8.924;2024-03-06T01:20:16;3.13;;;1.90;;
10134;SDS011;5107;48.850;8.924;2024-03-06T01:22:42;3.40;;;2.10;;
10134;SDS011;5107;48.850;8.924;2024-03-06T01:25:07;4.17;;;1.90;;
10134;SDS011;5107;48.850;8.924;2024-03-06T01:27:33;2.33;;;2.07;;
10134;SDS011;5107;48.850;8.924;2024-03-06T01:29:58;3.30;;;1.90;;
10134;SDS011;5107;48.850;8.924;2024-03-06T01:32:24;3.00;;;2.30;;
10134;SDS011;5107;48.850;8.924;2024-03-06T01:34:49;3.87;;;2.23;;
10134;SDS011;5107;48.850;8.924;2024-03-06T01:37:15;3.57;;;2.00;;
10134;SDS011;5107;48.850;8.924;2024-03-06T01:39:40;3.13;;;2.10;;
10134;SDS011;5107;48.850;8.924;2024-03-06T01:42:07;2.77;;;2.00;;
10134;SDS011;5107;48.850;8.924;2024-03-06T01:44:32;3.70;;;1.90;;
10134;SDS011;5107;48.850;8.924;2024-03-06T01:46:57;4.23;;;1.97;;
10134;SDS011;5107;48.850;8.924;2024-03-06T01:49:23;2.67;;;2.00;;
10134;SDS011;5107;48.850;8.924;2024-03-06T01:51:54;2.50;;;1.90;;
10134;SDS011;5107;48.850;8.924;2024-03-06T01:54:22;3.03;;;2.10;;
10134;SDS011;5107;48.850;8.924;2024-03-06T01:56:48;5.17;;;2.00;;
10134;SDS011;5107;48.850;8.924;2024-03-06T01:59:15;2.07;;;1.87;;
10134;SDS011;5107;48.850;8.924;2024-03-06T02:01:43;3.50;;;2.37;;
10134;SDS011;5107;48.850;8.924;2024-03-06T02:04:08;7.60;;;2.10;;
10134;SDS011;5107;48.850;8.924;2024-03-06T02:06:40;4.07;;;2.10;;
10134;SDS011;5107;48.850;8.924;2024-03-06T02:09:06;3.30;;;2.43;;
10134;SDS011;5107;48.850;8.924;2024-03-06T02:11:32;5.93;;;2.07;;
10134;SDS011;5107;48.850;8.924;2024-03-06T02:13:58;5.47;;;2.40;;
10134;SDS011;5107;48.850;8.924;2024-03-06T02:16:23;2.47;;;2.07;;
10134;SDS011;5107;48.850;8.924;2024-03-06T02:18:52;4.40;;;2.60;;
10134;SDS011;5107;48.850;8.924;2024-03-06T02:21:19;2.73;;;2.00;;
10134;SDS011;5107;48.850;8.924;2024-03-06T02:23:45;2.90;;;2.30;;
10134;SDS011;5107;48.850;8.924;2024-03-06T02:26:10;4.37;;;2.30;;
10134;SDS011;5107;48.850;8.924;2024-03-06T02:28:36;3.77;;;2.40;;
10134;SDS011;5107;48.850;8.924;2024-03-06T02:31:01;2.53;;;2.10;;
10134;SDS011;5107;48.850;8.924;2024-03-06T02:33:27;3.20;;;2.20;;
10134;SDS011;5107;48.850;8.924;2024-03-06T02:35:52;3.83;;;2.67;;
10134;SDS011;5107;48.850;8.924;2024-03-06T02:38:17;3.57;;;2.20;;
10134;SDS011;5107;48.850;8.924;2024-03-06T02:40:43;2.93;;;2.60;;
10134;SDS011;5107;48.850;8.924;2024-03-06T02:43:09;3.17;;;2.30;;
10134;SDS011;5107;48.850;8.924;2024-03-06T02:45:34;4.80;;;2.60;;
10134;SDS011;5107;48.850;8.924;2024-03-06T02:48:00;2.80;;;2.40;;
10134;SDS011;5107;48.850;8.924;2024-03-06T02:50:25;3.87;;;2.67;;
10134;SDS011;5107;48.850;8.924;2024-03-06T02:52:54;5.37;;;2.80;;
10134;SDS011;5107;48.850;8.924;2024-03-06T02:55:22;2.83;;;2.50;;
10134;SDS011;5107;48.850;8.924;2024-03-06T02:57:49;4.10;;;2.50;;
10134;SDS011;5107;48.850;8.924;2024-03-06T03:03:16;5.30;;;2.37;;
10134;SDS011;5107;48.850;8.924;2024-03-06T03:05:52;3.30;;;2.57;;
10134;SDS011;5107;48.850;8.924;2024-03-06T03:08:32;6.37;;;2.97;;
10134;SDS011;5107;48.850;8.924;2024-03-06T03:11:00;4.10;;;2.67;;
10134;SDS011;5107;48.850;8.924;2024-03-06T03:13:52;3.00;;;2.50;;
10134;SDS011;5107;48.850;8.924;2024-03-06T03:16:44;4.83;;;2.80;;
10134;SDS011;5107;48.850;8.924;2024-03-06T03:19:10;4.13;;;2.60;;
10134;SDS011;5107;48.850;8.924;2024-03-06T03:21:43;2.70;;;2.30;;
10134;SDS011;5107;48.850;8.924;2024-03-06T03:24:20;3.40;;;2.37;;
10134;SDS011;5107;48.850;8.924;2024-03-06T03:26:46;4.53;;;2.80;;
10134;SDS011;5107;48.850;8.924;2024-03-06T03:29:14;4.47;;;2.83;;
10134;SDS011;5107;48.850;8.924;2024-03-06T03:31:55;4.77;;;2.63;;
10134;SDS011;5107;48.850;8.924;2024-03-06T03:34:24;3.37;;;2.50;;
10134;SDS011;5107;48.850;8.924;2024-03-06T03:36:49;4.33;;;2.83;;
10134;SDS011;5107;48.850;8.924;2024-03-06T03:39:15;4.50;;;3.30;;
10134;SDS011;5107;48.850;8.924;2024-03-06T03:41:49;5.73;;;3.13;;
10134;SDS011;5107;48.850;8.924;2024-03-06T03:44:15;4.13;;;3.07;;
10134;SDS011;5107;48.850;8.924;2024-03-06T03:46:48;3.97;;;2.97;;
10134;SDS011;5107;48.850;8.924;2024-03-06T03:49:13;5.00;;;3.60;;
10134;SDS011;5107;48.850;8.924;2024-03-06T03:51:39;3.50;;;2.93;;
10134;SDS011;5107;48.850;8.924;2024-03-06T03:54:07;6.83;;;3.33;;
10134;SDS011;5107;48.850;8.924;2024-03-06T03:56:33;5.23;;;3.33;;
10134;SDS011;5107;48.850;8.924;2024-03-06T03:59:18;3.93;;;2.93;;
10134;SDS011;5107;48.850;8.924;2024-03-06T04:01:47;4.67;;;3.00;;
10134;SDS011;5107;48.850;8.924;2024-03-06T04:04:16;5.47;;;3.50;;
10134;SDS011;5107;48.850;8.924;2024-03-06T04:09:51;4.67;;;3.70;;
10134;SDS011;5107;48.850;8.924;2024-03-06T04:12:20;8.13;;;3.20;;
10134;SDS011;5107;48.850;8.924;2024-03-06T04:14:48;3.30;;;3.00;;
10134;SDS011;5107;48.850;8.924;2024-03-06T04:17:19;3.73;;;3.23;;
10134;SDS011;5107;48.850;8.924;2024-03-06T04:19:45;5.83;;;3.40;;
10134;SDS011;5107;48.850;8.924;2024-03-06T04:22:13;6.40;;;3.27;;
10134;SDS011;5107;48.850;8.924;2024-03-06T04:24:42;5.27;;;3.50;;
10134;SDS011;5107;48.850;8.924;2024-03-06T04:27:18;4.90;;;3.30;;
10134;SDS011;5107;48.850;8.924;2024-03-06T04:29:46;6.43;;;4.23;;
10134;SDS011;5107;48.850;8.924;2024-03-06T04:32:12;5.93;;;3.70;;
10134;SDS011;5107;48.850;8.924;2024-03-06T04:34:46;4.00;;;3.30;;
10134;SDS011;5107;48.850;8.924;2024-03-06T04:37:14;5.50;;;3.83;;
10134;SDS011;5107;48.850;8.924;2024-03-06T04:39:40;7.10;;;3.67;;
10134;SDS011;5107;48.850;8.924;2024-03-06T04:42:08;4.20;;;3.30;;
10134;SDS011;5107;48.850;8.924;2024-03-06T04:44:37;6.10;;;3.67;;
10134;SDS011;5107;48.850;8.924;2024-03-06T04:47:10;4.67;;;3.17;;
10134;SDS011;5107;48.850;8.924;2024-03-06T04:50:13;4.77;;;3.47;;
10134;SDS011;5107;48.850;8.924;2024-03-06T04:52:49;5.10;;;3.43;;
10134;SDS011;5107;48.850;8.924;2024-03-06T04:55:18;3.97;;;3.30;;
10134;SDS011;5107;48.850;8.924;2024-03-06T04:58:05;5.10;;;3.33;;
10134;SDS011;5107;48.850;8.924;2024-03-06T05:00:34;6.60;;;3.30;;
10134;SDS011;5107;48.850;8.924;2024-03-06T05:06:22;8.00;;;4.80;;
10134;SDS011;5107;48.850;8.924;2024-03-06T05:08:57;11.43;;;6.53;;
10134;SDS011;5107;48.850;8.924;2024-03-06T05:11:44;8.23;;;5.77;;
10134;SDS011;5107;48.850;8.924;2024-03-06T05:14:15;6.83;;;4.63;;
10134;SDS011;5107;48.850;8.924;2024-03-06T05:16:51;7.93;;;4.60;;
10134;SDS011;5107;48.850;8.924;2024-03-06T05:19:18;6.03;;;4.37;;
10134;SDS011;5107;48.850;8.924;2024-03-06T05:21:43;8.03;;;4.97;;
10134;SDS011;5107;48.850;8.924;2024-03-06T05:24:12;5.30;;;4.10;;
10134;SDS011;5107;48.850;8.924;2024-03-06T05:26:52;5.80;;;4.40;;
10134;SDS011;5107;48.850;8.924;2024-03-06T05:33:16;5.10;;;3.70;;
10134;SDS011;5107;48.850;8.924;2024-03-06T05:39:33;5.63;;;4.00;;
10134;SDS011;5107;48.850;8.924;2024-03-06T05:42:09;5.67;;;4.00;;
10134;SDS011;5107;48.850;8.924;2024-03-06T05:44:38;5.73;;;3.77;;
10134;SDS011;5107;48.850;8.924;2024-03-06T05:47:29;6.53;;;3.70;;
10134;SDS011;5107;48.850;8.924;2024-03-06T05:50:01;5.70;;;3.50;;
10134;SDS011;5107;48.850;8.924;2024-03-06T05:52:36;5.63;;;3.40;;
10134;SDS011;5107;48.850;8.924;2024-03-06T05:55:02;5.60;;;3.40;;
10134;SDS011;5107;48.850;8.924;2024-03-06T05:57:33;7.13;;;3.70;;
10134;SDS011;5107;48.850;8.924;2024-03-06T05:59:59;6.70;;;3.77;;
10134;SDS011;5107;48.850;8.924;2024-03-06T06:02:25;4.77;;;3.60;;
10134;SDS011;5107;48.850;8.924;2024-03-06T06:05:01;3.97;;;3.50;;
10134;SDS011;5107;48.850;8.924;2024-03-06T06:07:33;8.33;;;3.63;;
10134;SDS011;5107;48.850;8.924;2024-03-06T06:10:04;3.93;;;3.53;;
10134;SDS011;5107;48.850;8.924;2024-03-06T06:12:35;3.80;;;3.40;;
10134;SDS011;5107;48.850;8.924;2024-03-06T06:15:03;3.93;;;3.37;;
10134;SDS011;5107;48.850;8.924;2024-03-06T06:17:29;5.97;;;3.87;;
10134;SDS011;5107;48.850;8.924;2024-03-06T06:19:55;4.67;;;3.73;;
10134;SDS011;5107;48.850;8.924;2024-03-06T06:29:43;5.53;;;3.90;;
10134;SDS011;5107;48.850;8.924;2024-03-06T06:38:02;5.33;;;4.40;;
10134;SDS011;5107;48.850;8.924;2024-03-06T06:43:53;7.07;;;4.50;;
10134;SDS011;5107;48.850;8.924;2024-03-06T06:46:24;8.90;;;4.70;;
10134;SDS011;5107;48.850;8.924;2024-03-06T06:52:12;7.00;;;4.20;;
10134;SDS011;5107;48.850;8.924;2024-03-06T06:54:38;5.13;;;3.93;;
10134;SDS011;5107;48.850;8.924;2024-03-06T06:57:04;5.70;;;4.30;;
10134;SDS011;5107;48.850;8.924;2024-03-06T06:59:29;6.83;;;3.90;;
10134;SDS011;5107;48.850;8.924;2024-03-06T07:01:55;6.27;;;4.20;;
10134;SDS011;5107;48.850;8.924;2024-03-06T07:04:31;5.27;;;3.60;;
10134;SDS011;5107;48.850;8.924;2024-03-06T07:07:03;6.80;;;4.10;;
10134;SDS011;5107;48.850;8.924;2024-03-06T07:12:43;6.00;;;3.70;;
10134;SDS011;5107;48.850;8.924;2024-03-06T07:15:52;7.37;;;3.93;;
10134;SDS011;5107;48.850;8.924;2024-03-06T07:21:46;5.50;;;4.07;;
10134;SDS011;5107;48.850;8.924;2024-03-06T07:24:32;7.83;;;4.57;;
10134;SDS011;5107;48.850;8.924;2024-03-06T07:26:58;7.10;;;4.43;;
10134;SDS011;5107;48.850;8.924;2024-03-06T07:29:26;6.37;;;4.17;;
10134;SDS011;5107;48.850;8.924;2024-03-06T07:32:05;8.40;;;4.73;;
10134;SDS011;5107;48.850;8.924;2024-03-06T07:34:33;6.30;;;4.37;;
10134;SDS011;5107;48.850;8.924;2024-03-06T07:37:04;5.03;;;4.27;;
10134;SDS011;5107;48.850;8.924;2024-03-06T07:39:30;6.20;;;4.33;;
10134;SDS011;5107;48.850;8.924;2024-03-06T07:41:56;5.67;;;4.00;;
10134;SDS011;5107;48.850;8.924;2024-03-06T07:44:22;6.80;;;4.97;;
10134;SDS011;5107;48.850;8.924;2024-03-06T07:46:47;5.27;;;4.10;;
10134;SDS011;5107;48.850;8.924;2024-03-06T07:49:15;6.83;;;4.47;;
10134;SDS011;5107;48.850;8.924;2024-03-06T07:51:41;7.13;;;4.57;;
10134;SDS011;5107;48.850;8.924;2024-03-06T07:54:13;7.07;;;4.27;;
10134;SDS011;5107;48.850;8.924;2024-03-06T07:56:39;7.63;;;4.60;;
10134;SDS011;5107;48.850;8.924;2024-03-06T07:59:05;6.17;;;4.10;;
10134;SDS011;5107;48.850;8.924;2024-03-06T08:01:30;6.27;;;4.47;;
10134;SDS011;5107;48.850;8.924;2024-03-06T08:03:57;7.20;;;4.57;;
10134;SDS011;5107;48.850;8.924;2024-03-06T08:06:28;10.17;;;4.87;;
10134;SDS011;5107;48.850;8.924;2024-03-06T08:09:00;8.10;;;4.20;;
10134;SDS011;5107;48.850;8.924;2024-03-06T08:11:28;8.47;;;5.33;;
10134;SDS011;5107;48.850;8.924;2024-03-06T08:14:20;7.47;;;4.40;;
10134;SDS011;5107;48.850;8.924;2024-03-06T08:16:45;8.00;;;5.03;;
10134;SDS011;5107;48.850;8.924;2024-03-06T08:19:29;5.83;;;4.57;;
10134;SDS011;5107;48.850;8.924;2024-03-06T08:21:58;6.57;;;4.60;;
10134;SDS011;5107;48.850;8.924;2024-03-06T08:24:23;5.33;;;4.37;;
10134;SDS011;5107;48.850;8.924;2024-03-06T08:26:49;8.17;;;4.10;;
10134;SDS011;5107;48.850;8.924;2024-03-06T08:29:14;5.00;;;3.90;;
10134;SDS011;5107;48.850;8.924;2024-03-06T08:31:40;6.77;;;4.40;;
10134;SDS011;5107;48.850;8.924;2024-03-06T08:34:05;6.10;;;4.13;;
10134;SDS011;5107;48.850;8.924;2024-03-06T08:36:41;7.13;;;4.30;;
10134;SDS011;5107;48.850;8.924;2024-03-06T08:39:07;4.30;;;3.87;;
10134;SDS011;5107;48.850;8.924;2024-03-06T08:41:37;6.03;;;3.70;;
10134;SDS011;5107;48.850;8.924;2024-03-06T08:44:03;9.10;;;4.00;;
10134;SDS011;5107;48.850;8.924;2024-03-06T08:46:29;7.00;;;3.70;;
10134;SDS011;5107;48.850;8.924;2024-03-06T08:49:15;6.87;;;4.13;;
10134;SDS011;5107;48.850;8.924;2024-03-06T08:51:41;7.20;;;4.47;;
10134;SDS011;5107;48.850;8.924;2024-03-06T08:54:07;6.20;;;4.43;;
10134;SDS011;5107;48.850;8.924;2024-03-06T08:56:47;7.60;;;4.20;;
10134;SDS011;5107;48.850;8.924;2024-03-06T08:59:13;4.40;;;3.63;;
10134;SDS011;5107;48.850;8.924;2024-03-06T09:01:41;5.33;;;3.87;;
10134;SDS011;5107;48.850;8.924;2024-03-06T09:04:13;7.50;;;4.30;;
10134;SDS011;5107;48.850;8.924;2024-03-06T09:06:38;5.33;;;3.90;;
10134;SDS011;5107;48.850;8.924;2024-03-06T09:09:03;5.60;;;4.17;;
10134;SDS011;5107;48.850;8.924;2024-03-06T09:14:15;6.77;;;4.60;;
10134;SDS011;5107;48.850;8.924;2024-03-06T09:16:50;6.87;;;4.33;;
10134;SDS011;5107;48.850;8.924;2024-03-06T09:19:19;5.80;;;4.90;;
10134;SDS011;5107;48.850;8.924;2024-03-06T09:21:47;6.13;;;4.60;;
10134;SDS011;5107;48.850;8.924;2024-03-06T09:24:13;5.63;;;4.80;;
10134;SDS011;5107;48.850;8.924;2024-03-06T09:26:41;6.07;;;5.47;;
10134;SDS011;5107;48.850;8.924;2024-03-06T09:29:07;8.53;;;5.60;;
10134;SDS011;5107;48.850;8.924;2024-03-06T09:31:32;6.07;;;5.43;;
10134;SDS011;5107;48.850;8.924;2024-03-06T09:33:57;7.57;;;4.97;;
10134;SDS011;5107;48.850;8.924;2024-03-06T09:36:23;9.73;;;5.70;;
10134;SDS011;5107;48.850;8.924;2024-03-06T09:38:50;7.80;;;5.83;;
10134;SDS011;5107;48.850;8.924;2024-03-06T09:41:16;6.90;;;5.80;;
10134;SDS011;5107;48.850;8.924;2024-03-06T09:43:43;9.50;;;6.40;;
10134;SDS011;5107;48.850;8.924;2024-03-06T09:46:11;9.13;;;6.33;;
10134;SDS011;5107;48.850;8.924;2024-03-06T09:48:37;8.13;;;6.40;;
10134;SDS011;5107;48.850;8.924;2024-03-06T09:51:11;9.40;;;6.20;;
10134;SDS011;5107;48.850;8.924;2024-03-06T09:53:50;7.47;;;6.40;;
10134;SDS011;5107;48.850;8.924;2024-03-06T09:57:12;10.40;;;7.00;;
10134;SDS011;5107;48.850;8.924;2024-03-06T10:03:33;12.47;;;8.47;;
10134;SDS011;5107;48.850;8.924;2024-03-06T10:06:28;12.23;;;8.30;;
10134;SDS011;5107;48.850;8.924;2024-03-06T10:09:02;12.60;;;9.57;;
10134;SDS011;5107;48.850;8.924;2024-03-06T10:11:30;11.80;;;10.47;;
10134;SDS011;5107;48.850;8.924;2024-03-06T10:14:07;13.47;;;10.63;;
10134;SDS011;5107;48.850;8.924;2024-03-06T10:16:56;14.00;;;10.13;;
10134;SDS011;5107;48.850;8.924;2024-03-06T10:22:34;13.73;;;11.33;;
10134;SDS011;5107;48.850;8.924;2024-03-06T10:29:06;13.57;;;10.83;;
10134;SDS011;5107;48.850;8.924;2024-03-06T10:31:41;17.40;;;11.57;;
10134;SDS011;5107;48.850;8.924;2024-03-06T10:34:49;14.23;;;11.10;;
10134;SDS011;5107;48.850;8.924;2024-03-06T10:41:22;16.20;;;11.43;;
10134;SDS011;5107;48.850;8.924;2024-03-06T10:44:17;18.17;;;11.30;;
10134;SDS011;5107;48.850;8.924;2024-03-06T10:46:56;15.40;;;12.00;;
10134;SDS011;5107;48.850;8.924;2024-03-06T10:49:24;15.97;;;12.23;;
10134;SDS011;5107;48.850;8.924;2024-03-06T10:51:51;16.80;;;12.73;;
10134;SDS011;5107;48.850;8.924;2024-03-06T10:54:17;18.73;;;13.53;;
10134;SDS011;5107;48.850;8.924;2024-03-06T10:56:46;18.77;;;13.73;;
10134;SDS011;5107;48.850;8.924;2024-03-06T10:59:21;19.07;;;13.03;;
10134;SDS011;5107;48.850;8.924;2024-03-06T11:02:03;18.10;;;13.40;;
10134;SDS011;5107;48.850;8.924;2024-03-06T11:04:30;19.77;;;14.53;;
10134;SDS011;5107;48.850;8.924;2024-03-06T11:07:00;21.17;;;14.07;;
10134;SDS011;5107;48.850;8.924;2024-03-06T11:09:35;21.17;;;13.77;;
10134;SDS011;5107;48.850;8.924;2024-03-06T11:12:31;23.10;;;14.40;;
10134;SDS011;5107;48.850;8.924;2024-03-06T11:14:59;20.30;;;14.13;;
10134;SDS011;5107;48.850;8.924;2024-03-06T11:17:45;20.33;;;14.93;;
10134;SDS011;5107;48.850;8.924;2024-03-06T11:20:24;19.13;;;13.37;;
10134;SDS011;5107;48.850;8.924;2024-03-06T11:29:03;18.13;;;13.03;;
10134;SDS011;5107;48.850;8.924;2024-03-06T11:31:34;22.00;;;15.10;;
10134;SDS011;5107;48.850;8.924;2024-03-06T11:34:22;23.00;;;13.97;;
10134;SDS011;5107;48.850;8.924;2024-03-06T11:36:57;19.57;;;14.13;;
10134;SDS011;5107;48.850;8.924;2024-03-06T11:39:48;20.00;;;14.30;;
10134;SDS011;5107;48.850;8.924;2024-03-06T11:42:43;17.70;;;13.40;;
10134;SDS011;5107;48.850;8.924;2024-03-06T11:45:18;18.30;;;13.50;;
10134;SDS011;5107;48.850;8.924;2024-03-06T11:47:57;17.57;;;13.60;;
10134;SDS011;5107;48.850;8.924;2024-03-06T11:50:30;17.70;;;13.43;;
10134;SDS011;5107;48.850;8.924;2024-03-06T11:53:19;18.53;;;13.80;;
10134;SDS011;5107;48.850;8.924;2024-03-06T11:55:50;15.13;;;12.40;;
10134;SDS011;5107;48.850;8.924;2024-03-06T11:58:19;18.43;;;12.00;;
10134;SDS011;5107;48.850;8.924;2024-03-06T12:00:53;16.40;;;11.97;;
10134;SDS011;5107;48.850;8.924;2024-03-06T12:03:20;20.43;;;13.03;;
10134;SDS011;5107;48.850;8.924;2024-03-06T12:08:54;16.37;;;12.87;;
10134;SDS011;5107;48.850;8.924;2024-03-06T12:11:23;16.90;;;12.83;;
10134;SDS011;5107;48.850;8.924;2024-03-06T12:13:50;16.33;;;12.97;;
10134;SDS011;5107;48.850;8.924;2024-03-06T12:16:16;18.30;;;13.97;;
10134;SDS011;5107;48.850;8.924;2024-03-06T12:21:31;18.00;;;14.73;;
10134;SDS011;5107;48.850;8.924;2024-03-06T12:24:09;15.00;;;12.10;;
10134;SDS011;5107;48.850;8.924;2024-03-06T12:26:35;14.93;;;11.90;;
10134;SDS011;5107;48.850;8.924;2024-03-06T12:29:18;15.40;;;11.80;;
10134;SDS011;5107;48.850;8.924;2024-03-06T12:31:44;16.43;;;12.30;;
10134;SDS011;5107;48.850;8.924;2024-03-06T12:34:13;14.70;;;12.30;;
10134;SDS011;5107;48.850;8.924;2024-03-06T12:36:40;15.40;;;12.00;;
10134;SDS011;5107;48.850;8.924;2024-03-06T12:39:06;15.23;;;12.03;;
10134;SDS011;5107;48.850;8.924;2024-03-06T12:41:55;16.33;;;12.60;;
10134;SDS011;5107;48.850;8.924;2024-03-06T12:44:22;16.10;;;11.97;;
10134;SDS011;5107;48.850;8.924;2024-03-06T12:46:47;15.63;;;12.97;;
10134;SDS011;5107;48.850;8.924;2024-03-06T12:49:13;17.80;;;13.73;;
10134;SDS011;5107;48.850;8.924;2024-03-06T12:51:39;16.33;;;12.67;;
10134;SDS011;5107;48.850;8.924;2024-03-06T12:54:08;16.37;;;12.77;;
10134;SDS011;5107;48.850;8.924;2024-03-06T12:56:34;17.30;;;13.30;;
10134;SDS011;5107;48.850;8.924;2024-03-06T12:59:07;17.93;;;12.90;;
10134;SDS011;5107;48.850;8.924;2024-03-06T13:01:34;17.43;;;13.30;;
10134;SDS011;5107;48.850;8.924;2024-03-06T13:04:00;16.77;;;13.10;;
10134;SDS011;5107;48.850;8.924;2024-03-06T13:06:25;15.77;;;12.93;;
10134;SDS011;5107;48.850;8.924;2024-03-06T13:08:53;16.87;;;13.37;;
10134;SDS011;5107;48.850;8.924;2024-03-06T13:11:19;18.43;;;13.53;;
10134;SDS011;5107;48.850;8.924;2024-03-06T13:13:44;18.90;;;13.70;;
10134;SDS011;5107;48.850;8.924;2024-03-06T13:16:13;19.13;;;13.87;;
10134;SDS011;5107;48.850;8.924;2024-03-06T13:18:38;16.67;;;13.03;;
10134;SDS011;5107;48.850;8.924;2024-03-06T13:21:04;19.27;;;13.57;;
10134;SDS011;5107;48.850;8.924;2024-03-06T13:23:30;18.53;;;13.63;;
10134;SDS011;5107;48.850;8.924;2024-03-06T13:25:59;20.77;;;14.40;;
10134;SDS011;5107;48.850;8.924;2024-03-06T13:28:31;20.87;;;13.70;;
10134;SDS011;5107;48.850;8.924;2024-03-06T13:31:09;17.93;;;14.40;;
10134;SDS011;5107;48.850;8.924;2024-03-06T13:33:34;20.00;;;14.70;;
10134;SDS011;5107;48.850;8.924;2024-03-06T13:36:00;17.80;;;13.37;;
10134;SDS011;5107;48.850;8.924;2024-03-06T13:38:25;19.20;;;13.37;;
10134;SDS011;5107;48.850;8.924;2024-03-06T13:40:50;18.53;;;13.70;;
10134;SDS011;5107;48.850;8.924;2024-03-06T13:43:16;19.13;;;14.33;;
10134;SDS011;5107;48.850;8.924;2024-03-06T13:45:50;17.60;;;14.23;;
10134;SDS011;5107;48.850;8.924;2024-03-06T13:48:16;17.53;;;13.43;;
10134;SDS011;5107;48.850;8.924;2024-03-06T13:50:42;19.87;;;14.03;;
10134;SDS011;5107;48.850;8.924;2024-03-06T13:53:16;20.60;;;15.10;;
10134;SDS011;5107;48.850;8.924;2024-03-06T13:55:44;18.47;;;14.17;;
10134;SDS011;5107;48.850;8.924;2024-03-06T13:58:16;20.00;;;15.00;;
10134;SDS011;5107;48.850;8.924;2024-03-06T14:00:45;21.07;;;15.00;;
10134;SDS011;5107;48.850;8.924;2024-03-06T14:03:44;17.53;;;13.77;;
10134;SDS011;5107;48.850;8.924;2024-03-06T14:06:07;19.57;;;13.83;;
10134;SDS011;5107;48.850;8.924;2024-03-06T14:08:34;22.07;;;15.80;;
10134;SDS011;5107;48.850;8.924;2024-03-06T14:11:04;20.00;;;14.10;;
10134;SDS011;5107;48.850;8.924;2024-03-06T14:13:32;17.50;;;13.07;;
10134;SDS011;5107;48.850;8.924;2024-03-06T14:16:20;18.63;;;14.17;;
10134;SDS011;5107;48.850;8.924;2024-03-06T14:18:52;16.53;;;13.40;;
10134;SDS011;5107;48.850;8.924;2024-03-06T14:21:28;17.03;;;13.63;;
10134;SDS011;5107;48.850;8.924;2024-03-06T14:23:54;19.23;;;13.33;;
10134;SDS011;5107;48.850;8.924;2024-03-06T14:26:22;19.80;;;13.47;;
10134;SDS011;5107;48.850;8.924;2024-03-06T14:28:57;18.67;;;13.53;;
10134;SDS011;5107;48.850;8.924;2024-03-06T14:31:43;18.43;;;13.70;;
10134;SDS011;5107;48.850;8.924;2024-03-06T14:34:16;18.03;;;13.40;;
10134;SDS011;5107;48.850;8.924;2024-03-06T14:36:41;18.77;;;14.33;;
10134;SDS011;5107;48.850;8.924;2024-03-06T14:39:17;19.80;;;15.27;;
10134;SDS011;5107;48.850;8.924;2024-03-06T14:41:43;19.80;;;16.20;;
10134;SDS011;5107;48.850;8.924;2024-03-06T14:44:16;21.03;;;14.90;;
10134;SDS011;5107;48.850;8.924;2024-03-06T14:46:51;20.13;;;14.30;;
10134;SDS011;5107;48.850;8.924;2024-03-06T14:49:17;19.50;;;14.60;;
10134;SDS011;5107;48.850;8.924;2024-03-06T14:51:42;20.13;;;14.50;;
10134;SDS011;5107;48.850;8.924;2024-03-06T14:54:08;18.90;;;14.63;;
10134;SDS011;5107;48.850;8.924;2024-03-06T14:56:34;20.20;;;14.73;;
10134;SDS011;5107;48.850;8.924;2024-03-06T14:58:59;18.97;;;13.93;;
10134;SDS011;5107;48.850;8.924;2024-03-06T15:01:25;17.70;;;14.40;;
10134;SDS011;5107;48.850;8.924;2024-03-06T15:03:53;21.90;;;14.40;;
10134;SDS011;5107;48.850;8.924;2024-03-06T15:06:19;18.43;;;13.37;;
10134;SDS011;5107;48.850;8.924;2024-03-06T15:08:45;21.27;;;14.77;;
10134;SDS011;5107;48.850;8.924;2024-03-06T15:11:11;18.37;;;13.87;;
10134;SDS011;5107;48.850;8.924;2024-03-06T15:13:37;18.60;;;14.03;;
10134;SDS011;5107;48.850;8.924;2024-03-06T15:16:11;18.93;;;14.77;;
10134;SDS011;5107;48.850;8.924;2024-03-06T15:18:38;18.50;;;14.17;;
10134;SDS011;5107;48.850;8.924;2024-03-06T15:21:04;24.07;;;15.53;;
10134;SDS011;5107;48.850;8.924;2024-03-06T15:23:29;20.80;;;14.80;;
10134;SDS011;5107;48.850;8.924;2024-03-06T15:25:56;19.93;;;14.80;;
10134;SDS011;5107;48.850;8.924;2024-03-06T15:28:22;22.03;;;15.93;;
10134;SDS011;5107;48.850;8.924;2024-03-06T15:30:47;25.83;;;15.97;;
10134;SDS011;5107;48.850;8.924;2024-03-06T15:33:13;19.30;;;14.63;;
10134;SDS011;5107;48.850;8.924;2024-03-06T15:35:38;21.47;;;14.60;;
10134;SDS011;5107;48.850;8.924;2024-03-06T15:38:04;21.83;;;15.27;;
10134;SDS011;5107;48.850;8.924;2024-03-06T15:40:29;23.07;;;15.90;;
10134;SDS011;5107;48.850;8.924;2024-03-06T15:42:55;25.20;;;16.70;;
10134;SDS011;5107;48.850;8.924;2024-03-06T15:45:21;23.37;;;15.83;;
10134;SDS011;5107;48.850;8.924;2024-03-06T15:47:47;22.03;;;16.10;;
10134;SDS011;5107;48.850;8.924;2024-03-06T15:50:13;25.40;;;15.97;;
10134;SDS011;5107;48.850;8.924;2024-03-06T15:52:38;23.43;;;16.00;;
10134;SDS011;5107;48.850;8.924;2024-03-06T15:55:07;23.03;;;16.73;;
10134;SDS011;5107;48.850;8.924;2024-03-06T15:57:34;25.20;;;16.40;;
10134;SDS011;5107;48.850;8.924;2024-03-06T16:00:00;25.57;;;18.03;;
10134;SDS011;5107;48.850;8.924;2024-03-06T16:02:25;27.00;;;19.03;;
10134;SDS011;5107;48.850;8.924;2024-03-06T16:04:51;27.17;;;18.50;;
10134;SDS011;5107;48.850;8.924;2024-03-06T16:07:16;24.30;;;18.20;;
10134;SDS011;5107;48.850;8.924;2024-03-06T16:09:42;24.37;;;17.50;;
10134;SDS011;5107;48.850;8.924;2024-03-06T16:12:07;23.50;;;17.93;;
10134;SDS011;5107;48.850;8.924;2024-03-06T16:14:33;26.60;;;18.30;;
10134;SDS011;5107;48.850;8.924;2024-03-06T16:16:58;28.33;;;18.60;;
10134;SDS011;5107;48.850;8.924;2024-03-06T16:19:23;24.10;;;17.73;;